sensor_id;sensor_type;location;lat;lon;timestamp;P1;durP1;ratioP1;P2;durP2;ratioP2
78856;SDS011;68207;50.078;19.936;2023-05-10T00:01:15;10.10;;;6.10;;
78856;SDS011;68207;50.078;19.936;2023-05-10T00:03:40;9.20;;;6.60;;
78856;SDS011;68207;50.078;19.936;2023-05-10T00:06:06;10.20;;;5.60;;
78856;SDS011;68207;50.078;19.936;2023-05-10T00:08:31;11.40;;;5.70;;
78856;SDS011;68207;50.078;19.936;2023-05-10T00:10:56;10.10;;;5.80;;
78856;SDS011;68207;50.078;19.936;2023-05-10T00:13:22;12.10;;;6.80;;
78856;SDS011;68207;50.078;19.936;2023-05-10T00:15:47;10.70;;;6.10;;
78856;SDS011;68207;50.078;19.936;2023-05-10T00:18:12;9.70;;;5.40;;
78856;SDS011;68207;50.078;19.936;2023-05-10T00:20:38;12.10;;;5.60;;
78856;SDS011;68207;50.078;19.936;2023-05-10T00:23:03;7.60;;;5.00;;
78856;SDS011;68207;50.078;19.936;2023-05-10T00:25:28;7.90;;;5.60;;
78856;SDS011;68207;50.078;19.936;2023-05-10T00:27:53;8.30;;;5.00;;
78856;SDS011;68207;50.078;19.936;2023-05-10T00:30:20;9.20;;;6.00;;
78856;SDS011;68207;50.078;19.936;2023-05-10T00:32:45;7.60;;;5.10;;
78856;SDS011;68207;50.078;19.936;2023-05-10T00:35:13;9.60;;;6.60;;
78856;SDS011;68207;50.078;19.936;2023-05-10T00:37:38;7.50;;;5.10;;
78856;SDS011;68207;50.078;19.936;2023-05-10T00:40:03;8.50;;;5.30;;
78856;SDS011;68207;50.078;19.936;2023-05-10T00:42:29;7.80;;;5.30;;
78856;SDS011;68207;50.078;19.936;2023-05-10T00:44:55;7.20;;;5.30;;
78856;SDS011;68207;50.078;19.936;2023-05-10T00:47:21;10.30;;;4.70;;
78856;SDS011;68207;50.078;19.936;2023-05-10T00:49:47;10.10;;;5.40;;
78856;SDS011;68207;50.078;19.936;2023-05-10T00:52:12;9.50;;;6.00;;
78856;SDS011;68207;50.078;19.936;2023-05-10T00:54:38;8.90;;;5.50;;
78856;SDS011;68207;50.078;19.936;2023-05-10T00:57:03;10.10;;;5.40;;
78856;SDS011;68207;50.078;19.936;2023-05-10T00:59:29;6.90;;;5.30;;
78856;SDS011;68207;50.078;19.936;2023-05-10T01:01:54;6.60;;;4.70;;
78856;SDS011;68207;50.078;19.936;2023-05-10T01:04:20;10.80;;;5.40;;
78856;SDS011;68207;50.078;19.936;2023-05-10T01:06:50;10.40;;;5.60;;
78856;SDS011;68207;50.078;19.936;2023-05-10T01:09:16;9.40;;;5.20;;
78856;SDS011;68207;50.078;19.936;2023-05-10T01:11:42;10.60;;;5.70;;
78856;SDS011;68207;50.078;19.936;2023-05-10T01:14:08;13.00;;;5.50;;
78856;SDS011;68207;50.078;19.936;2023-05-10T01:16:36;6.50;;;4.60;;
78856;SDS011;68207;50.078;19.936;2023-05-10T01:19:08;6.70;;;5.00;;
78856;SDS011;68207;50.078;19.936;2023-05-10T01:21:48;19.60;;;7.60;;
78856;SDS011;68207;50.078;19.936;2023-05-10T01:24:25;9.30;;;4.80;;
78856;SDS011;68207;50.078;19.936;2023-05-10T01:29:58;6.50;;;5.20;;
78856;SDS011;68207;50.078;19.936;2023-05-10T01:35:23;6.10;;;4.50;;
78856;SDS011;68207;50.078;19.936;2023-05-10T01:38:04;6.80;;;4.60;;
78856;SDS011;68207;50.078;19.936;2023-05-10T01:40:38;6.10;;;4.00;;
78856;SDS011;68207;50.078;19.936;2023-05-10T01:43:08;7.30;;;5.00;;
78856;SDS011;68207;50.078;19.936;2023-05-10T01:46:01;6.70;;;4.80;;
78856;SDS011;68207;50.078;19.936;2023-05-10T01:48:35;8.00;;;4.50;;
78856;SDS011;68207;50.078;19.936;2023-05-10T01:51:03;5.90;;;4.90;;
78856;SDS011;68207;50.078;19.936;2023-05-10T01:53:31;7.60;;;4.70;;
78856;SDS011;68207;50.078;19.936;2023-05-10T01:55:59;9.50;;;6.00;;
78856;SDS011;68207;50.078;19.936;2023-05-10T01:58:27;7.60;;;5.20;;
78856;SDS011;68207;50.078;19.936;2023-05-10T02:00:55;7.70;;;5.70;;
78856;SDS011;68207;50.078;19.936;2023-05-10T02:03:25;7.60;;;5.90;;
78856;SDS011;68207;50.078;19.936;2023-05-10T02:05:53;9.80;;;5.90;;
78856;SDS011;68207;50.078;19.936;2023-05-10T02:08:21;8.20;;;5.40;;
78856;SDS011;68207;50.078;19.936;2023-05-10T02:10:47;9.60;;;5.80;;
78856;SDS011;68207;50.078;19.936;2023-05-10T02:13:15;12.60;;;6.20;;
78856;SDS011;68207;50.078;19.936;2023-05-10T02:15:41;8.50;;;5.40;;
78856;SDS011;68207;50.078;19.936;2023-05-10T02:18:08;7.70;;;4.90;;
78856;SDS011;68207;50.078;19.936;2023-05-10T02:20:35;7.10;;;5.00;;
78856;SDS011;68207;50.078;19.936;2023-05-10T02:23:02;6.40;;;4.30;;
78856;SDS011;68207;50.078;19.936;2023-05-10T02:25:28;7.90;;;4.70;;
78856;SDS011;68207;50.078;19.936;2023-05-10T02:30:21;5.60;;;4.60;;
78856;SDS011;68207;50.078;19.936;2023-05-10T02:32:48;9.30;;;5.50;;
78856;SDS011;68207;50.078;19.936;2023-05-10T02:35:14;8.00;;;4.90;;
78856;SDS011;68207;50.078;19.936;2023-05-10T02:37:41;5.60;;;4.20;;
78856;SDS011;68207;50.078;19.936;2023-05-10T02:40:08;7.20;;;4.60;;
78856;SDS011;68207;50.078;19.936;2023-05-10T02:42:36;7.20;;;4.90;;
78856;SDS011;68207;50.078;19.936;2023-05-10T02:45:07;6.10;;;4.50;;
78856;SDS011;68207;50.078;19.936;2023-05-10T02:47:36;8.40;;;5.00;;
78856;SDS011;68207;50.078;19.936;2023-05-10T02:50:02;6.70;;;5.10;;
78856;SDS011;68207;50.078;19.936;2023-05-10T02:52:29;7.50;;;5.40;;
78856;SDS011;68207;50.078;19.936;2023-05-10T02:55:02;8.10;;;4.80;;
78856;SDS011;68207;50.078;19.936;2023-05-10T02:57:32;10.70;;;5.90;;
78856;SDS011;68207;50.078;19.936;2023-05-10T02:59:59;7.30;;;5.00;;
78856;SDS011;68207;50.078;19.936;2023-05-10T03:02:26;9.50;;;4.90;;
78856;SDS011;68207;50.078;19.936;2023-05-10T03:04:52;7.90;;;5.40;;
78856;SDS011;68207;50.078;19.936;2023-05-10T03:07:17;8.90;;;5.50;;
78856;SDS011;68207;50.078;19.936;2023-05-10T03:09:46;9.30;;;5.50;;
78856;SDS011;68207;50.078;19.936;2023-05-10T03:18:07;9.10;;;5.20;;
78856;SDS011;68207;50.078;19.936;2023-05-10T03:20:36;7.70;;;4.60;;
78856;SDS011;68207;50.078;19.936;2023-05-10T03:25:52;7.60;;;4.60;;
78856;SDS011;68207;50.078;19.936;2023-05-10T03:28:18;7.00;;;5.20;;
78856;SDS011;68207;50.078;19.936;2023-05-10T03:30:45;9.00;;;4.70;;
78856;SDS011;68207;50.078;19.936;2023-05-10T03:33:11;8.20;;;4.90;;
78856;SDS011;68207;50.078;19.936;2023-05-10T03:35:37;8.30;;;5.00;;
78856;SDS011;68207;50.078;19.936;2023-05-10T03:38:03;8.90;;;4.80;;
78856;SDS011;68207;50.078;19.936;2023-05-10T03:40:28;11.10;;;5.10;;
78856;SDS011;68207;50.078;19.936;2023-05-10T03:42:54;8.30;;;5.00;;
78856;SDS011;68207;50.078;19.936;2023-05-10T03:45:20;8.10;;;4.70;;
78856;SDS011;68207;50.078;19.936;2023-05-10T03:47:45;10.30;;;6.00;;
78856;SDS011;68207;50.078;19.936;2023-05-10T03:50:10;9.70;;;5.40;;
78856;SDS011;68207;50.078;19.936;2023-05-10T03:52:36;10.90;;;5.80;;
78856;SDS011;68207;50.078;19.936;2023-05-10T03:55:04;10.20;;;5.80;;
78856;SDS011;68207;50.078;19.936;2023-05-10T03:57:30;11.80;;;5.40;;
78856;SDS011;68207;50.078;19.936;2023-05-10T03:59:55;11.10;;;6.40;;
78856;SDS011;68207;50.078;19.936;2023-05-10T04:02:20;8.70;;;5.60;;
78856;SDS011;68207;50.078;19.936;2023-05-10T04:04:45;9.10;;;5.50;;
78856;SDS011;68207;50.078;19.936;2023-05-10T04:07:11;7.30;;;5.20;;
78856;SDS011;68207;50.078;19.936;2023-05-10T04:09:36;7.00;;;4.70;;
78856;SDS011;68207;50.078;19.936;2023-05-10T04:12:01;10.10;;;5.40;;
78856;SDS011;68207;50.078;19.936;2023-05-10T04:14:27;8.10;;;4.30;;
78856;SDS011;68207;50.078;19.936;2023-05-10T04:16:52;6.70;;;5.00;;
78856;SDS011;68207;50.078;19.936;2023-05-10T04:19:18;6.40;;;4.40;;
78856;SDS011;68207;50.078;19.936;2023-05-10T04:21:43;8.70;;;5.20;;
78856;SDS011;68207;50.078;19.936;2023-05-10T04:24:08;6.10;;;4.40;;
78856;SDS011;68207;50.078;19.936;2023-05-10T04:26:33;11.20;;;5.40;;
78856;SDS011;68207;50.078;19.936;2023-05-10T04:28:59;6.80;;;4.30;;
78856;SDS011;68207;50.078;19.936;2023-05-10T04:31:24;6.30;;;4.50;;
78856;SDS011;68207;50.078;19.936;2023-05-10T04:33:49;6.80;;;4.80;;
78856;SDS011;68207;50.078;19.936;2023-05-10T04:36:15;6.00;;;4.30;;
78856;SDS011;68207;50.078;19.936;2023-05-10T04:38:40;6.10;;;4.50;;
78856;SDS011;68207;50.078;19.936;2023-05-10T04:41:06;8.40;;;4.80;;
78856;SDS011;68207;50.078;19.936;2023-05-10T04:43:33;7.40;;;4.40;;
78856;SDS011;68207;50.078;19.936;2023-05-10T04:45:58;6.40;;;4.70;;
78856;SDS011;68207;50.078;19.936;2023-05-10T04:48:24;5.40;;;4.10;;
78856;SDS011;68207;50.078;19.936;2023-05-10T04:50:49;5.70;;;3.80;;
78856;SDS011;68207;50.078;19.936;2023-05-10T04:53:14;5.90;;;4.20;;
78856;SDS011;68207;50.078;19.936;2023-05-10T04:55:40;7.80;;;4.40;;
78856;SDS011;68207;50.078;19.936;2023-05-10T04:58:05;7.40;;;4.50;;
78856;SDS011;68207;50.078;19.936;2023-05-10T05:00:30;6.80;;;4.50;;
78856;SDS011;68207;50.078;19.936;2023-05-10T05:02:56;8.90;;;4.40;;
78856;SDS011;68207;50.078;19.936;2023-05-10T05:05:21;9.50;;;4.70;;
78856;SDS011;68207;50.078;19.936;2023-05-10T05:07:46;7.90;;;5.00;;
78856;SDS011;68207;50.078;19.936;2023-05-10T05:10:12;6.50;;;4.80;;
78856;SDS011;68207;50.078;19.936;2023-05-10T05:12:37;8.40;;;5.30;;
78856;SDS011;68207;50.078;19.936;2023-05-10T05:15:02;9.20;;;4.60;;
78856;SDS011;68207;50.078;19.936;2023-05-10T05:17:29;6.80;;;4.40;;
78856;SDS011;68207;50.078;19.936;2023-05-10T05:19:55;8.10;;;4.90;;
78856;SDS011;68207;50.078;19.936;2023-05-10T05:22:20;6.70;;;4.80;;
78856;SDS011;68207;50.078;19.936;2023-05-10T05:24:52;7.30;;;4.70;;
78856;SDS011;68207;50.078;19.936;2023-05-10T05:27:17;6.80;;;4.70;;
78856;SDS011;68207;50.078;19.936;2023-05-10T05:29:43;8.80;;;5.20;;
78856;SDS011;68207;50.078;19.936;2023-05-10T05:32:08;7.50;;;4.60;;
78856;SDS011;68207;50.078;19.936;2023-05-10T05:34:34;6.90;;;4.50;;
78856;SDS011;68207;50.078;19.936;2023-05-10T05:36:59;9.60;;;5.30;;
78856;SDS011;68207;50.078;19.936;2023-05-10T05:39:24;8.10;;;5.20;;
78856;SDS011;68207;50.078;19.936;2023-05-10T05:41:49;10.60;;;5.40;;
78856;SDS011;68207;50.078;19.936;2023-05-10T05:44:15;10.60;;;5.70;;
78856;SDS011;68207;50.078;19.936;2023-05-10T05:46:40;9.50;;;5.50;;
78856;SDS011;68207;50.078;19.936;2023-05-10T05:49:05;9.40;;;5.10;;
78856;SDS011;68207;50.078;19.936;2023-05-10T05:51:30;7.20;;;5.50;;
78856;SDS011;68207;50.078;19.936;2023-05-10T05:53:56;8.60;;;5.70;;
78856;SDS011;68207;50.078;19.936;2023-05-10T05:56:21;8.70;;;6.20;;
78856;SDS011;68207;50.078;19.936;2023-05-10T05:58:51;9.60;;;5.30;;
78856;SDS011;68207;50.078;19.936;2023-05-10T06:01:16;11.60;;;5.70;;
78856;SDS011;68207;50.078;19.936;2023-05-10T06:03:42;12.10;;;5.70;;
78856;SDS011;68207;50.078;19.936;2023-05-10T06:06:07;10.30;;;6.60;;
78856;SDS011;68207;50.078;19.936;2023-05-10T06:08:33;7.80;;;5.20;;
78856;SDS011;68207;50.078;19.936;2023-05-10T06:10:59;11.90;;;5.70;;
78856;SDS011;68207;50.078;19.936;2023-05-10T06:13:25;14.20;;;5.50;;
78856;SDS011;68207;50.078;19.936;2023-05-10T06:15:53;10.80;;;6.20;;
78856;SDS011;68207;50.078;19.936;2023-05-10T06:18:19;11.20;;;7.20;;
78856;SDS011;68207;50.078;19.936;2023-05-10T06:20:44;9.20;;;5.40;;
78856;SDS011;68207;50.078;19.936;2023-05-10T06:23:09;10.00;;;5.70;;
78856;SDS011;68207;50.078;19.936;2023-05-10T06:25:34;8.90;;;5.10;;
78856;SDS011;68207;50.078;19.936;2023-05-10T06:28:00;10.50;;;6.10;;
78856;SDS011;68207;50.078;19.936;2023-05-10T06:30:25;7.90;;;5.30;;
78856;SDS011;68207;50.078;19.936;2023-05-10T06:32:53;9.60;;;5.10;;
78856;SDS011;68207;50.078;19.936;2023-05-10T06:35:19;11.90;;;5.20;;
78856;SDS011;68207;50.078;19.936;2023-05-10T06:37:45;9.10;;;5.40;;
78856;SDS011;68207;50.078;19.936;2023-05-10T06:40:11;10.50;;;5.10;;
78856;SDS011;68207;50.078;19.936;2023-05-10T06:42:36;8.20;;;5.00;;
78856;SDS011;68207;50.078;19.936;2023-05-10T06:45:02;9.50;;;5.10;;
78856;SDS011;68207;50.078;19.936;2023-05-10T06:47:28;7.60;;;5.00;;
78856;SDS011;68207;50.078;19.936;2023-05-10T06:49:53;8.10;;;4.60;;
78856;SDS011;68207;50.078;19.936;2023-05-10T06:52:18;11.20;;;5.60;;
78856;SDS011;68207;50.078;19.936;2023-05-10T06:54:44;8.60;;;5.00;;
78856;SDS011;68207;50.078;19.936;2023-05-10T06:57:09;10.30;;;4.30;;
78856;SDS011;68207;50.078;19.936;2023-05-10T06:59:34;6.10;;;3.70;;
78856;SDS011;68207;50.078;19.936;2023-05-10T07:06:51;6.00;;;3.80;;
78856;SDS011;68207;50.078;19.936;2023-05-10T07:09:16;7.90;;;4.40;;
78856;SDS011;68207;50.078;19.936;2023-05-10T07:11:42;6.20;;;3.60;;
78856;SDS011;68207;50.078;19.936;2023-05-10T07:14:07;12.10;;;4.30;;
78856;SDS011;68207;50.078;19.936;2023-05-10T07:16:32;6.50;;;4.30;;
78856;SDS011;68207;50.078;19.936;2023-05-10T07:18:57;10.40;;;4.50;;
78856;SDS011;68207;50.078;19.936;2023-05-10T07:21:23;9.90;;;4.20;;
78856;SDS011;68207;50.078;19.936;2023-05-10T07:23:49;8.90;;;4.90;;
78856;SDS011;68207;50.078;19.936;2023-05-10T07:26:15;8.50;;;4.60;;
78856;SDS011;68207;50.078;19.936;2023-05-10T07:28:40;8.20;;;4.10;;
78856;SDS011;68207;50.078;19.936;2023-05-10T07:31:06;4.70;;;4.00;;
78856;SDS011;68207;50.078;19.936;2023-05-10T07:33:31;8.70;;;4.40;;
78856;SDS011;68207;50.078;19.936;2023-05-10T07:35:56;11.50;;;4.60;;
78856;SDS011;68207;50.078;19.936;2023-05-10T07:38:22;8.40;;;4.40;;
78856;SDS011;68207;50.078;19.936;2023-05-10T07:40:47;8.70;;;4.70;;
78856;SDS011;68207;50.078;19.936;2023-05-10T07:43:12;8.00;;;4.30;;
78856;SDS011;68207;50.078;19.936;2023-05-10T07:45:38;6.60;;;4.30;;
78856;SDS011;68207;50.078;19.936;2023-05-10T07:48:03;9.20;;;4.20;;
78856;SDS011;68207;50.078;19.936;2023-05-10T07:50:28;6.90;;;4.40;;
78856;SDS011;68207;50.078;19.936;2023-05-10T07:52:54;7.40;;;4.70;;
78856;SDS011;68207;50.078;19.936;2023-05-10T07:55:19;10.80;;;4.20;;
78856;SDS011;68207;50.078;19.936;2023-05-10T07:57:46;6.30;;;4.10;;
78856;SDS011;68207;50.078;19.936;2023-05-10T08:00:16;6.50;;;3.60;;
78856;SDS011;68207;50.078;19.936;2023-05-10T08:02:43;9.20;;;4.70;;
78856;SDS011;68207;50.078;19.936;2023-05-10T08:05:08;7.50;;;3.40;;
78856;SDS011;68207;50.078;19.936;2023-05-10T08:07:34;11.20;;;3.70;;
78856;SDS011;68207;50.078;19.936;2023-05-10T08:10:00;9.30;;;3.40;;
78856;SDS011;68207;50.078;19.936;2023-05-10T08:12:25;8.00;;;3.70;;
78856;SDS011;68207;50.078;19.936;2023-05-10T08:14:50;5.60;;;3.40;;
78856;SDS011;68207;50.078;19.936;2023-05-10T08:17:15;8.10;;;3.30;;
78856;SDS011;68207;50.078;19.936;2023-05-10T08:19:41;4.40;;;3.30;;
78856;SDS011;68207;50.078;19.936;2023-05-10T08:22:06;6.40;;;3.10;;
78856;SDS011;68207;50.078;19.936;2023-05-10T08:24:31;5.80;;;3.20;;
78856;SDS011;68207;50.078;19.936;2023-05-10T08:26:57;6.80;;;3.70;;
78856;SDS011;68207;50.078;19.936;2023-05-10T08:29:22;5.30;;;3.20;;
78856;SDS011;68207;50.078;19.936;2023-05-10T08:31:48;4.70;;;3.00;;
78856;SDS011;68207;50.078;19.936;2023-05-10T08:34:13;3.90;;;2.90;;
78856;SDS011;68207;50.078;19.936;2023-05-10T08:36:38;5.10;;;2.70;;
78856;SDS011;68207;50.078;19.936;2023-05-10T08:39:03;4.30;;;3.30;;
78856;SDS011;68207;50.078;19.936;2023-05-10T08:41:28;3.70;;;2.60;;
78856;SDS011;68207;50.078;19.936;2023-05-10T08:43:56;3.40;;;2.50;;
78856;SDS011;68207;50.078;19.936;2023-05-10T08:46:22;3.60;;;2.60;;
78856;SDS011;68207;50.078;19.936;2023-05-10T08:48:49;2.90;;;2.30;;
78856;SDS011;68207;50.078;19.936;2023-05-10T08:51:19;4.80;;;2.90;;
78856;SDS011;68207;50.078;19.936;2023-05-10T08:53:47;9.00;;;3.00;;
78856;SDS011;68207;50.078;19.936;2023-05-10T08:56:13;4.10;;;2.50;;
78856;SDS011;68207;50.078;19.936;2023-05-10T08:58:40;4.60;;;2.40;;
78856;SDS011;68207;50.078;19.936;2023-05-10T09:01:06;3.70;;;2.50;;
78856;SDS011;68207;50.078;19.936;2023-05-10T09:03:32;3.60;;;2.70;;
78856;SDS011;68207;50.078;19.936;2023-05-10T09:05:57;4.20;;;2.80;;
78856;SDS011;68207;50.078;19.936;2023-05-10T09:08:23;5.40;;;2.60;;
78856;SDS011;68207;50.078;19.936;2023-05-10T09:10:53;2.60;;;2.10;;
78856;SDS011;68207;50.078;19.936;2023-05-10T09:13:19;3.90;;;2.40;;
78856;SDS011;68207;50.078;19.936;2023-05-10T09:15:46;2.70;;;2.20;;
78856;SDS011;68207;50.078;19.936;2023-05-10T09:18:13;2.70;;;2.30;;
78856;SDS011;68207;50.078;19.936;2023-05-10T09:20:38;3.20;;;2.10;;
78856;SDS011;68207;50.078;19.936;2023-05-10T09:23:03;3.80;;;2.10;;
78856;SDS011;68207;50.078;19.936;2023-05-10T09:25:29;5.20;;;2.10;;
78856;SDS011;68207;50.078;19.936;2023-05-10T09:27:55;3.00;;;2.20;;
78856;SDS011;68207;50.078;19.936;2023-05-10T09:30:24;4.00;;;2.40;;
78856;SDS011;68207;50.078;19.936;2023-05-10T09:32:50;3.60;;;2.20;;
78856;SDS011;68207;50.078;19.936;2023-05-10T09:35:16;2.50;;;1.90;;
78856;SDS011;68207;50.078;19.936;2023-05-10T09:37:44;3.70;;;2.10;;
78856;SDS011;68207;50.078;19.936;2023-05-10T09:40:13;5.50;;;2.20;;
78856;SDS011;68207;50.078;19.936;2023-05-10T09:42:40;3.30;;;2.10;;
78856;SDS011;68207;50.078;19.936;2023-05-10T09:45:07;2.60;;;2.10;;
78856;SDS011;68207;50.078;19.936;2023-05-10T09:47:33;3.50;;;2.20;;
78856;SDS011;68207;50.078;19.936;2023-05-10T09:50:00;4.90;;;2.40;;
78856;SDS011;68207;50.078;19.936;2023-05-10T09:52:28;3.40;;;1.90;;
78856;SDS011;68207;50.078;19.936;2023-05-10T09:54:55;4.90;;;2.30;;
78856;SDS011;68207;50.078;19.936;2023-05-10T09:57:20;5.50;;;2.20;;
78856;SDS011;68207;50.078;19.936;2023-05-10T09:59:47;4.70;;;2.20;;
78856;SDS011;68207;50.078;19.936;2023-05-10T10:04:41;4.10;;;2.20;;
78856;SDS011;68207;50.078;19.936;2023-05-10T10:07:08;5.30;;;2.40;;
78856;SDS011;68207;50.078;19.936;2023-05-10T10:12:00;2.40;;;1.90;;
78856;SDS011;68207;50.078;19.936;2023-05-10T10:14:26;5.20;;;2.30;;
78856;SDS011;68207;50.078;19.936;2023-05-10T10:16:51;3.00;;;2.10;;
78856;SDS011;68207;50.078;19.936;2023-05-10T10:21:49;4.90;;;2.30;;
78856;SDS011;68207;50.078;19.936;2023-05-10T10:24:14;5.50;;;2.30;;
78856;SDS011;68207;50.078;19.936;2023-05-10T10:26:40;5.30;;;2.40;;
78856;SDS011;68207;50.078;19.936;2023-05-10T10:29:17;3.50;;;2.20;;
78856;SDS011;68207;50.078;19.936;2023-05-10T10:34:30;5.10;;;2.10;;
78856;SDS011;68207;50.078;19.936;2023-05-10T10:36:57;3.40;;;2.40;;
78856;SDS011;68207;50.078;19.936;2023-05-10T10:39:23;2.90;;;1.90;;
78856;SDS011;68207;50.078;19.936;2023-05-10T10:41:54;3.10;;;2.20;;
78856;SDS011;68207;50.078;19.936;2023-05-10T10:50:03;3.60;;;2.00;;
78856;SDS011;68207;50.078;19.936;2023-05-10T10:52:36;3.90;;;2.10;;
78856;SDS011;68207;50.078;19.936;2023-05-10T10:55:06;2.70;;;1.80;;
78856;SDS011;68207;50.078;19.936;2023-05-10T10:57:42;3.00;;;1.90;;
78856;SDS011;68207;50.078;19.936;2023-05-10T11:00:20;3.30;;;1.80;;
78856;SDS011;68207;50.078;19.936;2023-05-10T11:02:53;4.50;;;2.20;;
78856;SDS011;68207;50.078;19.936;2023-05-10T11:07:59;3.90;;;1.80;;
78856;SDS011;68207;50.078;19.936;2023-05-10T11:10:31;2.80;;;1.60;;
78856;SDS011;68207;50.078;19.936;2023-05-10T11:15:35;3.70;;;1.90;;
78856;SDS011;68207;50.078;19.936;2023-05-10T11:18:22;4.10;;;2.10;;
78856;SDS011;68207;50.078;19.936;2023-05-10T11:21:01;4.50;;;1.80;;
78856;SDS011;68207;50.078;19.936;2023-05-10T11:23:47;4.00;;;2.20;;
78856;SDS011;68207;50.078;19.936;2023-05-10T11:26:20;4.50;;;2.20;;
78856;SDS011;68207;50.078;19.936;2023-05-10T11:28:48;4.20;;;2.10;;
78856;SDS011;68207;50.078;19.936;2023-05-10T11:31:17;2.70;;;2.10;;
78856;SDS011;68207;50.078;19.936;2023-05-10T11:36:20;3.20;;;2.00;;
78856;SDS011;68207;50.078;19.936;2023-05-10T11:38:47;6.80;;;2.20;;
78856;SDS011;68207;50.078;19.936;2023-05-10T11:41:14;3.80;;;2.00;;
78856;SDS011;68207;50.078;19.936;2023-05-10T11:43:41;4.20;;;2.30;;
78856;SDS011;68207;50.078;19.936;2023-05-10T11:46:10;2.90;;;2.10;;
78856;SDS011;68207;50.078;19.936;2023-05-10T11:48:39;4.60;;;2.20;;
78856;SDS011;68207;50.078;19.936;2023-05-10T11:51:06;6.10;;;2.10;;
78856;SDS011;68207;50.078;19.936;2023-05-10T11:53:33;3.00;;;2.00;;
78856;SDS011;68207;50.078;19.936;2023-05-10T11:56:08;3.50;;;2.00;;
78856;SDS011;68207;50.078;19.936;2023-05-10T11:58:34;3.50;;;2.00;;
78856;SDS011;68207;50.078;19.936;2023-05-10T12:01:01;3.20;;;2.00;;
78856;SDS011;68207;50.078;19.936;2023-05-10T12:03:27;3.20;;;2.20;;
78856;SDS011;68207;50.078;19.936;2023-05-10T12:05:54;5.30;;;2.50;;
78856;SDS011;68207;50.078;19.936;2023-05-10T12:08:20;4.40;;;2.00;;
78856;SDS011;68207;50.078;19.936;2023-05-10T12:10:47;3.40;;;2.10;;
78856;SDS011;68207;50.078;19.936;2023-05-10T12:13:13;3.40;;;1.90;;
78856;SDS011;68207;50.078;19.936;2023-05-10T12:15:39;3.10;;;2.20;;
78856;SDS011;68207;50.078;19.936;2023-05-10T12:18:05;6.50;;;2.20;;
78856;SDS011;68207;50.078;19.936;2023-05-10T12:20:30;3.20;;;2.10;;
78856;SDS011;68207;50.078;19.936;2023-05-10T12:22:56;2.50;;;2.00;;
78856;SDS011;68207;50.078;19.936;2023-05-10T12:25:23;2.50;;;2.10;;
78856;SDS011;68207;50.078;19.936;2023-05-10T12:27:55;5.70;;;2.40;;
78856;SDS011;68207;50.078;19.936;2023-05-10T12:30:22;3.40;;;2.30;;
78856;SDS011;68207;50.078;19.936;2023-05-10T12:32:49;2.30;;;2.10;;
78856;SDS011;68207;50.078;19.936;2023-05-10T12:35:14;3.60;;;2.10;;
78856;SDS011;68207;50.078;19.936;2023-05-10T12:37:41;3.70;;;2.10;;
78856;SDS011;68207;50.078;19.936;2023-05-10T12:40:08;5.20;;;2.20;;
78856;SDS011;68207;50.078;19.936;2023-05-10T12:42:34;4.30;;;2.40;;
78856;SDS011;68207;50.078;19.936;2023-05-10T12:45:03;4.50;;;2.30;;
78856;SDS011;68207;50.078;19.936;2023-05-10T12:47:30;3.40;;;2.10;;
78856;SDS011;68207;50.078;19.936;2023-05-10T12:52:21;3.10;;;2.00;;
78856;SDS011;68207;50.078;19.936;2023-05-10T12:54:46;3.20;;;2.30;;
78856;SDS011;68207;50.078;19.936;2023-05-10T12:57:12;6.30;;;2.30;;
78856;SDS011;68207;50.078;19.936;2023-05-10T12:59:38;5.20;;;2.40;;
78856;SDS011;68207;50.078;19.936;2023-05-10T13:02:03;2.40;;;2.00;;
78856;SDS011;68207;50.078;19.936;2023-05-10T13:04:28;3.00;;;2.20;;
78856;SDS011;68207;50.078;19.936;2023-05-10T13:06:54;5.50;;;2.40;;
78856;SDS011;68207;50.078;19.936;2023-05-10T13:09:23;3.50;;;1.90;;
78856;SDS011;68207;50.078;19.936;2023-05-10T13:11:48;3.10;;;2.10;;
78856;SDS011;68207;50.078;19.936;2023-05-10T13:14:14;5.40;;;2.40;;
78856;SDS011;68207;50.078;19.936;2023-05-10T13:16:39;3.50;;;2.30;;
78856;SDS011;68207;50.078;19.936;2023-05-10T13:19:04;3.20;;;2.10;;
78856;SDS011;68207;50.078;19.936;2023-05-10T13:21:30;2.60;;;2.00;;
78856;SDS011;68207;50.078;19.936;2023-05-10T13:23:55;2.70;;;2.00;;
78856;SDS011;68207;50.078;19.936;2023-05-10T13:26:20;8.20;;;2.50;;
78856;SDS011;68207;50.078;19.936;2023-05-10T13:28:46;3.90;;;2.10;;
78856;SDS011;68207;50.078;19.936;2023-05-10T13:31:11;3.40;;;2.10;;
78856;SDS011;68207;50.078;19.936;2023-05-10T13:33:36;3.30;;;2.00;;
78856;SDS011;68207;50.078;19.936;2023-05-10T13:36:02;4.20;;;2.60;;
78856;SDS011;68207;50.078;19.936;2023-05-10T13:38:27;2.50;;;2.10;;
78856;SDS011;68207;50.078;19.936;2023-05-10T13:40:52;4.00;;;2.30;;
78856;SDS011;68207;50.078;19.936;2023-05-10T13:43:21;4.00;;;2.20;;
78856;SDS011;68207;50.078;19.936;2023-05-10T13:45:46;3.80;;;2.40;;
78856;SDS011;68207;50.078;19.936;2023-05-10T13:48:11;3.00;;;2.30;;
78856;SDS011;68207;50.078;19.936;2023-05-10T13:50:37;3.60;;;2.30;;
78856;SDS011;68207;50.078;19.936;2023-05-10T13:53:02;4.60;;;2.10;;
78856;SDS011;68207;50.078;19.936;2023-05-10T13:58:48;3.60;;;2.20;;
78856;SDS011;68207;50.078;19.936;2023-05-10T14:01:14;3.60;;;2.20;;
78856;SDS011;68207;50.078;19.936;2023-05-10T14:03:39;6.20;;;2.50;;
78856;SDS011;68207;50.078;19.936;2023-05-10T14:06:05;3.60;;;2.30;;
78856;SDS011;68207;50.078;19.936;2023-05-10T14:08:32;4.60;;;2.50;;
78856;SDS011;68207;50.078;19.936;2023-05-10T14:10:57;2.60;;;2.00;;
78856;SDS011;68207;50.078;19.936;2023-05-10T14:13:23;2.90;;;2.10;;
78856;SDS011;68207;50.078;19.936;2023-05-10T14:15:48;3.20;;;2.20;;
78856;SDS011;68207;50.078;19.936;2023-05-10T14:18:14;2.70;;;1.90;;
78856;SDS011;68207;50.078;19.936;2023-05-10T14:20:39;4.90;;;2.20;;
78856;SDS011;68207;50.078;19.936;2023-05-10T14:23:04;4.10;;;2.30;;
78856;SDS011;68207;50.078;19.936;2023-05-10T14:25:30;3.00;;;1.90;;
78856;SDS011;68207;50.078;19.936;2023-05-10T14:27:55;3.50;;;1.80;;
78856;SDS011;68207;50.078;19.936;2023-05-10T14:30:20;3.10;;;1.80;;
78856;SDS011;68207;50.078;19.936;2023-05-10T14:32:46;3.00;;;2.10;;
78856;SDS011;68207;50.078;19.936;2023-05-10T14:35:11;4.30;;;2.50;;
78856;SDS011;68207;50.078;19.936;2023-05-10T14:37:37;4.90;;;2.20;;
78856;SDS011;68207;50.078;19.936;2023-05-10T14:40:03;4.40;;;2.20;;
78856;SDS011;68207;50.078;19.936;2023-05-10T14:42:29;3.40;;;2.40;;
78856;SDS011;68207;50.078;19.936;2023-05-10T14:44:55;3.00;;;2.00;;
78856;SDS011;68207;50.078;19.936;2023-05-10T14:47:20;3.30;;;2.30;;
78856;SDS011;68207;50.078;19.936;2023-05-10T14:49:45;4.90;;;2.10;;
78856;SDS011;68207;50.078;19.936;2023-05-10T14:55:33;2.80;;;2.10;;
78856;SDS011;68207;50.078;19.936;2023-05-10T14:57:59;3.00;;;1.90;;
78856;SDS011;68207;50.078;19.936;2023-05-10T15:00:24;3.50;;;1.90;;
78856;SDS011;68207;50.078;19.936;2023-05-10T15:02:50;3.70;;;2.20;;
78856;SDS011;68207;50.078;19.936;2023-05-10T15:05:15;2.70;;;2.20;;
78856;SDS011;68207;50.078;19.936;2023-05-10T15:07:41;2.70;;;2.20;;
78856;SDS011;68207;50.078;19.936;2023-05-10T15:10:08;4.00;;;2.30;;
78856;SDS011;68207;50.078;19.936;2023-05-10T15:12:34;3.30;;;2.30;;
78856;SDS011;68207;50.078;19.936;2023-05-10T15:14:59;4.20;;;2.00;;
78856;SDS011;68207;50.078;19.936;2023-05-10T15:17:25;3.60;;;2.60;;
78856;SDS011;68207;50.078;19.936;2023-05-10T15:19:50;6.30;;;2.40;;
78856;SDS011;68207;50.078;19.936;2023-05-10T15:22:15;4.40;;;2.40;;
78856;SDS011;68207;50.078;19.936;2023-05-10T15:24:41;5.40;;;2.50;;